This is the latest recevied weather packets stored in our database for station/object K3HM. If no packets are shown the sender has not sent any weather packets the latest 1 day(s).
| Time | Temp. | Humidity | Pressure | Rain* | Wind** | Luminosity | Snow |
|---|---|---|---|---|---|---|---|
| 1778033718 | 13.89° C | 67% | 1011.4 hPa | 0 mm | - | 0 W/m² | - |
| 1778033415 | 13.33° C | 70% | 1011.4 hPa | 0 mm | - | 0 W/m² | - |
| 1778032204 | 13.33° C | 69% | 1011.4 hPa | 0 mm | - | 0 W/m² | - |
| 1778031901 | 13.89° C | 68% | 1011.5 hPa | 0 mm | - | 0 W/m² | - |
| 1778031596 | 13.89° C | 68% | 1011.4 hPa | 0 mm | - | 0 W/m² | - |
| 1778031295 | 13.89° C | 67% | 1011.4 hPa | 0 mm | - | 0 W/m² | - |
| 1778030990 | 14.44° C | 65% | 1011.4 hPa | 0 mm | - | 0 W/m² | - |
| 1778030687 | 14.44° C | 64% | 1011.2 hPa | 0 mm | - | 0 W/m² | - |
| 1778030384 | 14.44° C | 63% | 1011.1 hPa | 0 mm | - | 0 W/m² | - |
| 1778030082 | 14.44° C | 65% | 1011.3 hPa | 0 mm | - | 0 W/m² | - |
| 1778029778 | 15° C | 65% | 1011.3 hPa | 0 mm | - | 0 W/m² | - |
| 1778029173 | 16.11° C | 58% | 1011.5 hPa | 0 mm | - | 0 W/m² | - |
| 1778028871 | 16.11° C | 56% | 1011.4 hPa | 0 mm | - | 0 W/m² | - |
| 1778028566 | 16.67° C | 55% | 1011.4 hPa | 0 mm | - | 0 W/m² | - |
| 1778027960 | 17.22° C | 54% | 1011.3 hPa | 0 mm | - | 0 W/m² | - |
| 1778027657 | 17.78° C | 53% | 1011.4 hPa | 0 mm | - | 0 W/m² | - |
| 1778027353 | 17.78° C | 53% | 1011.2 hPa | 0 mm | - | 0 W/m² | - |
| 1778024928 | 18.89° C | 47% | 1011 hPa | 0 mm | - | 10 W/m² | - |
| 1778024626 | 18.89° C | 47% | 1011 hPa | 0 mm | - | 12 W/m² | - |
| 1778021901 | 19.44° C | 49% | 1011.1 hPa | 0 mm | - | 66 W/m² | - |
| 1778021293 | 20° C | 44% | 1011.1 hPa | 0 mm | - | 83 W/m² | - |
| 1778019777 | 20° C | 45% | 1011.1 hPa | 0 mm | - | 107 W/m² | - |
| 1778017961 | 20° C | 47% | 1011.3 hPa | 0 mm | - | 109 W/m² | - |
| 1778017659 | 20° C | 49% | 1011.3 hPa | 0 mm | - | 119 W/m² | - |
| 1778016750 | 20.56° C | 47% | 1011 hPa | 0 mm | - | 140 W/m² | - |
* Rain latest hour (hover to see other rain measurements)
** Current wind speed in m/s (hover to see current wind gust speed)